sensor_id;sensor_type;location;lat;lon;timestamp;temperature;humidity
78647;DHT22;67961;43.460;3.762;2023-04-15T00:01:20;12.50;65.90
78647;DHT22;67961;43.460;3.762;2023-04-15T00:03:49;12.50;66.10
78647;DHT22;67961;43.460;3.762;2023-04-15T00:06:16;12.40;66.30
78647;DHT22;67961;43.460;3.762;2023-04-15T00:08:42;12.40;66.60
78647;DHT22;67961;43.460;3.762;2023-04-15T00:11:08;12.30;66.40
78647;DHT22;67961;43.460;3.762;2023-04-15T00:13:33;12.40;65.50
78647;DHT22;67961;43.460;3.762;2023-04-15T00:15:59;12.40;65.40
78647;DHT22;67961;43.460;3.762;2023-04-15T00:18:26;12.50;65.50
78647;DHT22;67961;43.460;3.762;2023-04-15T00:20:51;12.50;64.80
78647;DHT22;67961;43.460;3.762;2023-04-15T00:23:17;12.50;64.60
78647;DHT22;67961;43.460;3.762;2023-04-15T00:25:46;12.60;64.70
78647;DHT22;67961;43.460;3.762;2023-04-15T00:28:12;12.70;64.30
78647;DHT22;67961;43.460;3.762;2023-04-15T00:30:38;12.70;64.70
78647;DHT22;67961;43.460;3.762;2023-04-15T00:33:04;12.80;64.40
78647;DHT22;67961;43.460;3.762;2023-04-15T00:35:30;12.80;64.70
78647;DHT22;67961;43.460;3.762;2023-04-15T00:37:58;12.80;64.60
78647;DHT22;67961;43.460;3.762;2023-04-15T00:40:24;12.80;64.80
78647;DHT22;67961;43.460;3.762;2023-04-15T00:42:50;12.80;65.20
78647;DHT22;67961;43.460;3.762;2023-04-15T00:45:17;12.70;65.50
78647;DHT22;67961;43.460;3.762;2023-04-15T00:47:43;12.70;64.80
78647;DHT22;67961;43.460;3.762;2023-04-15T00:50:10;12.70;64.90
78647;DHT22;67961;43.460;3.762;2023-04-15T00:52:37;12.70;65.00
78647;DHT22;67961;43.460;3.762;2023-04-15T00:55:04;12.70;65.10
78647;DHT22;67961;43.460;3.762;2023-04-15T00:57:30;12.80;64.40
78647;DHT22;67961;43.460;3.762;2023-04-15T00:59:57;12.80;64.40
78647;DHT22;67961;43.460;3.762;2023-04-15T01:02:23;12.90;64.00
78647;DHT22;67961;43.460;3.762;2023-04-15T01:04:49;12.80;64.60
78647;DHT22;67961;43.460;3.762;2023-04-15T01:07:15;12.80;64.20
78647;DHT22;67961;43.460;3.762;2023-04-15T01:09:41;12.90;63.90
78647;DHT22;67961;43.460;3.762;2023-04-15T01:12:07;12.80;64.40
78647;DHT22;67961;43.460;3.762;2023-04-15T01:14:34;12.90;63.90
78647;DHT22;67961;43.460;3.762;2023-04-15T01:17:00;12.90;63.20
78647;DHT22;67961;43.460;3.762;2023-04-15T01:19:27;13.00;63.00
78647;DHT22;67961;43.460;3.762;2023-04-15T01:21:53;13.00;63.60
78647;DHT22;67961;43.460;3.762;2023-04-15T01:24:18;12.90;63.90
78647;DHT22;67961;43.460;3.762;2023-04-15T01:26:44;12.90;63.40
78647;DHT22;67961;43.460;3.762;2023-04-15T01:29:11;12.90;63.80
78647;DHT22;67961;43.460;3.762;2023-04-15T01:31:37;12.90;64.20
78647;DHT22;67961;43.460;3.762;2023-04-15T01:34:03;12.90;63.60
78647;DHT22;67961;43.460;3.762;2023-04-15T01:36:29;13.00;63.70
78647;DHT22;67961;43.460;3.762;2023-04-15T01:38:55;13.00;64.20
78647;DHT22;67961;43.460;3.762;2023-04-15T01:41:28;12.90;64.30
78647;DHT22;67961;43.460;3.762;2023-04-15T01:43:54;13.00;63.80
78647;DHT22;67961;43.460;3.762;2023-04-15T01:46:20;13.10;63.30
78647;DHT22;67961;43.460;3.762;2023-04-15T01:48:45;13.00;63.20
78647;DHT22;67961;43.460;3.762;2023-04-15T01:51:11;13.00;63.20
78647;DHT22;67961;43.460;3.762;2023-04-15T01:53:37;13.10;63.60
78647;DHT22;67961;43.460;3.762;2023-04-15T01:56:03;13.00;63.50
78647;DHT22;67961;43.460;3.762;2023-04-15T01:58:29;13.00;64.00
78647;DHT22;67961;43.460;3.762;2023-04-15T02:00:55;12.90;63.60
78647;DHT22;67961;43.460;3.762;2023-04-15T02:03:21;12.90;63.70
78647;DHT22;67961;43.460;3.762;2023-04-15T02:05:47;12.90;63.30
78647;DHT22;67961;43.460;3.762;2023-04-15T02:08:13;12.90;63.20
78647;DHT22;67961;43.460;3.762;2023-04-15T02:10:39;12.90;64.00
78647;DHT22;67961;43.460;3.762;2023-04-15T02:13:05;12.90;64.10
78647;DHT22;67961;43.460;3.762;2023-04-15T02:15:30;12.90;63.60
78647;DHT22;67961;43.460;3.762;2023-04-15T02:17:56;12.90;63.20
78647;DHT22;67961;43.460;3.762;2023-04-15T02:20:23;12.90;63.20
78647;DHT22;67961;43.460;3.762;2023-04-15T02:22:49;13.00;63.30
78647;DHT22;67961;43.460;3.762;2023-04-15T02:25:15;13.00;62.70
78647;DHT22;67961;43.460;3.762;2023-04-15T02:27:44;13.00;63.20
78647;DHT22;67961;43.460;3.762;2023-04-15T02:30:10;12.90;63.10
78647;DHT22;67961;43.460;3.762;2023-04-15T02:32:36;13.00;62.80
78647;DHT22;67961;43.460;3.762;2023-04-15T02:35:07;13.00;63.20
78647;DHT22;67961;43.460;3.762;2023-04-15T02:37:34;13.00;62.90
78647;DHT22;67961;43.460;3.762;2023-04-15T02:40:08;13.00;62.80
78647;DHT22;67961;43.460;3.762;2023-04-15T02:42:37;13.00;63.20
78647;DHT22;67961;43.460;3.762;2023-04-15T02:45:02;13.00;62.90
78647;DHT22;67961;43.460;3.762;2023-04-15T02:47:28;13.00;62.90
78647;DHT22;67961;43.460;3.762;2023-04-15T02:49:54;13.10;62.70
78647;DHT22;67961;43.460;3.762;2023-04-15T02:52:19;13.00;62.70
78647;DHT22;67961;43.460;3.762;2023-04-15T02:54:45;13.00;63.20
78647;DHT22;67961;43.460;3.762;2023-04-15T02:57:11;13.00;63.70
78647;DHT22;67961;43.460;3.762;2023-04-15T02:59:37;12.90;63.80
78647;DHT22;67961;43.460;3.762;2023-04-15T03:02:03;12.90;63.50
78647;DHT22;67961;43.460;3.762;2023-04-15T03:04:32;12.90;63.50
78647;DHT22;67961;43.460;3.762;2023-04-15T03:06:57;12.80;63.30
78647;DHT22;67961;43.460;3.762;2023-04-15T03:09:23;12.80;63.10
78647;DHT22;67961;43.460;3.762;2023-04-15T03:11:49;12.80;63.30
78647;DHT22;67961;43.460;3.762;2023-04-15T03:14:17;12.80;63.80
78647;DHT22;67961;43.460;3.762;2023-04-15T03:16:43;12.80;62.90
78647;DHT22;67961;43.460;3.762;2023-04-15T03:19:12;12.80;63.20
78647;DHT22;67961;43.460;3.762;2023-04-15T03:21:37;12.80;62.60
78647;DHT22;67961;43.460;3.762;2023-04-15T03:24:03;12.80;62.40
78647;DHT22;67961;43.460;3.762;2023-04-15T03:26:30;12.80;63.20
78647;DHT22;67961;43.460;3.762;2023-04-15T03:28:56;12.80;62.50
78647;DHT22;67961;43.460;3.762;2023-04-15T03:31:22;12.80;63.00
78647;DHT22;67961;43.460;3.762;2023-04-15T03:33:48;12.90;63.20
78647;DHT22;67961;43.460;3.762;2023-04-15T03:36:14;12.80;62.60
78647;DHT22;67961;43.460;3.762;2023-04-15T03:38:41;12.80;63.60
78647;DHT22;67961;43.460;3.762;2023-04-15T03:41:07;12.80;63.70
78647;DHT22;67961;43.460;3.762;2023-04-15T03:43:32;12.80;62.80
78647;DHT22;67961;43.460;3.762;2023-04-15T03:45:58;12.80;62.30
78647;DHT22;67961;43.460;3.762;2023-04-15T03:48:24;12.90;62.90
78647;DHT22;67961;43.460;3.762;2023-04-15T03:50:49;12.90;62.70
78647;DHT22;67961;43.460;3.762;2023-04-15T03:53:15;12.90;62.20
78647;DHT22;67961;43.460;3.762;2023-04-15T03:55:41;13.00;62.80
78647;DHT22;67961;43.460;3.762;2023-04-15T03:58:06;13.00;62.70
78647;DHT22;67961;43.460;3.762;2023-04-15T04:00:32;13.10;62.40
78647;DHT22;67961;43.460;3.762;2023-04-15T04:02:58;13.10;62.20
78647;DHT22;67961;43.460;3.762;2023-04-15T04:05:23;13.10;62.50
78647;DHT22;67961;43.460;3.762;2023-04-15T04:07:49;13.10;62.20
78647;DHT22;67961;43.460;3.762;2023-04-15T04:10:15;13.10;62.10
78647;DHT22;67961;43.460;3.762;2023-04-15T04:12:40;13.20;62.00
78647;DHT22;67961;43.460;3.762;2023-04-15T04:15:06;13.20;61.80
78647;DHT22;67961;43.460;3.762;2023-04-15T04:17:32;13.20;62.20
78647;DHT22;67961;43.460;3.762;2023-04-15T04:19:58;13.10;63.00
78647;DHT22;67961;43.460;3.762;2023-04-15T04:22:24;13.10;63.70
78647;DHT22;67961;43.460;3.762;2023-04-15T04:24:50;13.10;63.90
78647;DHT22;67961;43.460;3.762;2023-04-15T04:27:15;13.00;64.00
78647;DHT22;67961;43.460;3.762;2023-04-15T04:29:41;13.00;64.20
78647;DHT22;67961;43.460;3.762;2023-04-15T04:32:07;13.00;64.20
78647;DHT22;67961;43.460;3.762;2023-04-15T04:34:32;12.90;64.00
78647;DHT22;67961;43.460;3.762;2023-04-15T04:36:58;12.90;64.20
78647;DHT22;67961;43.460;3.762;2023-04-15T04:39:24;12.90;64.10
78647;DHT22;67961;43.460;3.762;2023-04-15T04:41:49;12.90;64.20
78647;DHT22;67961;43.460;3.762;2023-04-15T04:44:16;12.80;64.30
78647;DHT22;67961;43.460;3.762;2023-04-15T04:46:42;12.80;64.10
78647;DHT22;67961;43.460;3.762;2023-04-15T04:49:08;12.80;64.20
78647;DHT22;67961;43.460;3.762;2023-04-15T04:51:33;12.80;64.20
78647;DHT22;67961;43.460;3.762;2023-04-15T04:53:59;12.90;63.90
78647;DHT22;67961;43.460;3.762;2023-04-15T04:56:25;12.90;63.90
78647;DHT22;67961;43.460;3.762;2023-04-15T04:58:51;12.90;63.70
78647;DHT22;67961;43.460;3.762;2023-04-15T05:01:17;12.90;63.60
78647;DHT22;67961;43.460;3.762;2023-04-15T05:03:43;13.00;63.30
78647;DHT22;67961;43.460;3.762;2023-04-15T05:06:08;13.10;62.90
78647;DHT22;67961;43.460;3.762;2023-04-15T05:08:35;13.10;62.90
78647;DHT22;67961;43.460;3.762;2023-04-15T05:11:01;13.10;62.70
78647;DHT22;67961;43.460;3.762;2023-04-15T05:13:27;13.10;62.50
78647;DHT22;67961;43.460;3.762;2023-04-15T05:15:54;13.10;62.70
78647;DHT22;67961;43.460;3.762;2023-04-15T05:18:20;13.10;62.60
78647;DHT22;67961;43.460;3.762;2023-04-15T05:20:45;13.30;62.20
78647;DHT22;67961;43.460;3.762;2023-04-15T05:23:11;13.30;62.10
78647;DHT22;67961;43.460;3.762;2023-04-15T05:25:37;13.30;62.40
78647;DHT22;67961;43.460;3.762;2023-04-15T05:28:02;13.30;62.20
78647;DHT22;67961;43.460;3.762;2023-04-15T05:30:28;13.30;62.20
78647;DHT22;67961;43.460;3.762;2023-04-15T05:32:54;13.30;62.20
78647;DHT22;67961;43.460;3.762;2023-04-15T05:35:19;13.30;62.30
78647;DHT22;67961;43.460;3.762;2023-04-15T05:37:45;13.40;62.10
78647;DHT22;67961;43.460;3.762;2023-04-15T05:40:11;13.50;62.00
78647;DHT22;67961;43.460;3.762;2023-04-15T05:42:37;13.50;61.90
78647;DHT22;67961;43.460;3.762;2023-04-15T05:45:03;13.50;62.00
78647;DHT22;67961;43.460;3.762;2023-04-15T05:47:36;13.50;61.40
78647;DHT22;67961;43.460;3.762;2023-04-15T05:50:02;13.50;61.60
78647;DHT22;67961;43.460;3.762;2023-04-15T05:52:28;13.60;62.00
78647;DHT22;67961;43.460;3.762;2023-04-15T05:54:55;13.50;61.80
78647;DHT22;67961;43.460;3.762;2023-04-15T05:57:20;13.60;61.30
78647;DHT22;67961;43.460;3.762;2023-04-15T05:59:46;13.60;61.80
78647;DHT22;67961;43.460;3.762;2023-04-15T06:02:11;13.60;61.90
78647;DHT22;67961;43.460;3.762;2023-04-15T06:04:37;13.60;61.50
78647;DHT22;67961;43.460;3.762;2023-04-15T06:07:03;13.60;61.60
78647;DHT22;67961;43.460;3.762;2023-04-15T06:09:29;13.70;61.40
78647;DHT22;67961;43.460;3.762;2023-04-15T06:11:55;13.70;61.20
78647;DHT22;67961;43.460;3.762;2023-04-15T06:14:22;13.90;60.70
78647;DHT22;67961;43.460;3.762;2023-04-15T06:16:47;13.90;60.70
78647;DHT22;67961;43.460;3.762;2023-04-15T06:19:15;14.00;60.90
78647;DHT22;67961;43.460;3.762;2023-04-15T06:21:41;14.10;60.80
78647;DHT22;67961;43.460;3.762;2023-04-15T06:24:07;14.20;60.20
78647;DHT22;67961;43.460;3.762;2023-04-15T06:26:32;14.30;60.30
78647;DHT22;67961;43.460;3.762;2023-04-15T06:28:58;14.40;60.60
78647;DHT22;67961;43.460;3.762;2023-04-15T06:31:23;14.50;60.40
78647;DHT22;67961;43.460;3.762;2023-04-15T06:33:49;14.60;60.30
78647;DHT22;67961;43.460;3.762;2023-04-15T06:36:15;14.60;60.00
78647;DHT22;67961;43.460;3.762;2023-04-15T06:38:40;14.70;59.70
78647;DHT22;67961;43.460;3.762;2023-04-15T06:41:06;14.70;60.10
78647;DHT22;67961;43.460;3.762;2023-04-15T06:43:32;14.70;59.50
78647;DHT22;67961;43.460;3.762;2023-04-15T06:45:57;14.70;59.40
78647;DHT22;67961;43.460;3.762;2023-04-15T06:48:23;14.70;59.30
78647;DHT22;67961;43.460;3.762;2023-04-15T06:50:49;14.70;59.00
78647;DHT22;67961;43.460;3.762;2023-04-15T06:53:15;14.80;58.90
78647;DHT22;67961;43.460;3.762;2023-04-15T06:55:41;14.90;58.70
78647;DHT22;67961;43.460;3.762;2023-04-15T06:58:06;14.80;58.40
78647;DHT22;67961;43.460;3.762;2023-04-15T07:00:32;14.80;57.80
78647;DHT22;67961;43.460;3.762;2023-04-15T07:02:59;14.90;57.80
78647;DHT22;67961;43.460;3.762;2023-04-15T07:05:28;14.90;57.80
78647;DHT22;67961;43.460;3.762;2023-04-15T07:07:54;15.00;57.70
78647;DHT22;67961;43.460;3.762;2023-04-15T07:10:20;15.20;57.50
78647;DHT22;67961;43.460;3.762;2023-04-15T07:12:47;15.40;57.20
78647;DHT22;67961;43.460;3.762;2023-04-15T07:15:13;15.50;57.20
78647;DHT22;67961;43.460;3.762;2023-04-15T07:17:40;15.50;56.20
78647;DHT22;67961;43.460;3.762;2023-04-15T07:20:06;15.50;56.70
78647;DHT22;67961;43.460;3.762;2023-04-15T07:22:32;15.50;57.00
78647;DHT22;67961;43.460;3.762;2023-04-15T07:24:58;15.80;56.50
78647;DHT22;67961;43.460;3.762;2023-04-15T07:27:24;15.80;56.40
78647;DHT22;67961;43.460;3.762;2023-04-15T07:29:50;15.80;57.00
78647;DHT22;67961;43.460;3.762;2023-04-15T07:32:16;15.80;56.50
78647;DHT22;67961;43.460;3.762;2023-04-15T07:34:42;15.90;55.10
78647;DHT22;67961;43.460;3.762;2023-04-15T07:37:08;15.90;55.90
78647;DHT22;67961;43.460;3.762;2023-04-15T07:39:34;15.90;55.10
78647;DHT22;67961;43.460;3.762;2023-04-15T07:42:00;15.70;53.40
78647;DHT22;67961;43.460;3.762;2023-04-15T07:44:26;15.50;53.00
78647;DHT22;67961;43.460;3.762;2023-04-15T07:46:52;15.40;53.00
78647;DHT22;67961;43.460;3.762;2023-04-15T07:49:18;15.30;52.80
78647;DHT22;67961;43.460;3.762;2023-04-15T07:51:45;15.20;52.90
78647;DHT22;67961;43.460;3.762;2023-04-15T07:54:11;15.20;52.80
78647;DHT22;67961;43.460;3.762;2023-04-15T07:56:37;15.10;53.10
78647;DHT22;67961;43.460;3.762;2023-04-15T07:59:02;15.00;53.00
78647;DHT22;67961;43.460;3.762;2023-04-15T08:01:30;15.00;52.80
78647;DHT22;67961;43.460;3.762;2023-04-15T08:03:57;15.10;53.00
78647;DHT22;67961;43.460;3.762;2023-04-15T08:06:23;15.10;52.50
78647;DHT22;67961;43.460;3.762;2023-04-15T08:08:49;15.20;53.00
78647;DHT22;67961;43.460;3.762;2023-04-15T08:11:15;15.20;52.10
78647;DHT22;67961;43.460;3.762;2023-04-15T08:13:41;15.30;51.90
78647;DHT22;67961;43.460;3.762;2023-04-15T08:16:15;15.30;52.50
78647;DHT22;67961;43.460;3.762;2023-04-15T08:18:40;15.40;52.20
78647;DHT22;67961;43.460;3.762;2023-04-15T08:21:06;15.80;51.50
78647;DHT22;67961;43.460;3.762;2023-04-15T08:23:32;16.30;50.90
78647;DHT22;67961;43.460;3.762;2023-04-15T08:25:58;17.00;49.50
78647;DHT22;67961;43.460;3.762;2023-04-15T08:28:24;20.10;45.60
78647;DHT22;67961;43.460;3.762;2023-04-15T08:30:52;21.90;42.00
78647;DHT22;67961;43.460;3.762;2023-04-15T08:33:18;23.00;40.60
78647;DHT22;67961;43.460;3.762;2023-04-15T08:35:43;24.30;39.70
78647;DHT22;67961;43.460;3.762;2023-04-15T08:38:09;25.30;38.20
78647;DHT22;67961;43.460;3.762;2023-04-15T08:40:40;25.60;37.70
78647;DHT22;67961;43.460;3.762;2023-04-15T08:43:09;26.50;36.10
78647;DHT22;67961;43.460;3.762;2023-04-15T08:45:38;28.30;35.50
78647;DHT22;67961;43.460;3.762;2023-04-15T08:48:04;29.10;33.50
78647;DHT22;67961;43.460;3.762;2023-04-15T08:50:31;29.50;33.10
78647;DHT22;67961;43.460;3.762;2023-04-15T08:53:00;29.70;33.00
78647;DHT22;67961;43.460;3.762;2023-04-15T08:55:31;29.60;33.60
78647;DHT22;67961;43.460;3.762;2023-04-15T08:58:01;29.00;33.60
78647;DHT22;67961;43.460;3.762;2023-04-15T09:00:30;28.50;33.90
78647;DHT22;67961;43.460;3.762;2023-04-15T09:02:58;28.70;33.80
78647;DHT22;67961;43.460;3.762;2023-04-15T09:05:23;28.60;32.60
78647;DHT22;67961;43.460;3.762;2023-04-15T09:07:50;25.00;35.00
78647;DHT22;67961;43.460;3.762;2023-04-15T09:10:16;21.90;38.80
78647;DHT22;67961;43.460;3.762;2023-04-15T09:12:42;20.50;40.20
78647;DHT22;67961;43.460;3.762;2023-04-15T09:15:10;19.90;40.50
78647;DHT22;67961;43.460;3.762;2023-04-15T09:17:42;19.70;40.90
78647;DHT22;67961;43.460;3.762;2023-04-15T09:20:08;19.70;41.00
78647;DHT22;67961;43.460;3.762;2023-04-15T09:22:35;19.60;40.40
78647;DHT22;67961;43.460;3.762;2023-04-15T09:25:01;19.50;40.40
78647;DHT22;67961;43.460;3.762;2023-04-15T09:27:28;19.20;40.80
78647;DHT22;67961;43.460;3.762;2023-04-15T09:29:53;19.20;41.30
78647;DHT22;67961;43.460;3.762;2023-04-15T09:32:19;19.30;40.30
78647;DHT22;67961;43.460;3.762;2023-04-15T09:34:47;19.40;41.60
78647;DHT22;67961;43.460;3.762;2023-04-15T09:37:13;19.50;40.40
78647;DHT22;67961;43.460;3.762;2023-04-15T09:39:53;19.70;39.90
78647;DHT22;67961;43.460;3.762;2023-04-15T09:42:19;19.70;40.30
78647;DHT22;67961;43.460;3.762;2023-04-15T09:44:49;19.80;40.60
78647;DHT22;67961;43.460;3.762;2023-04-15T09:47:31;19.70;39.70
78647;DHT22;67961;43.460;3.762;2023-04-15T09:49:58;19.60;40.50
78647;DHT22;67961;43.460;3.762;2023-04-15T09:52:24;19.70;40.00
78647;DHT22;67961;43.460;3.762;2023-04-15T09:54:52;19.70;40.80
78647;DHT22;67961;43.460;3.762;2023-04-15T09:57:19;19.70;40.20
78647;DHT22;67961;43.460;3.762;2023-04-15T09:59:46;19.70;40.60
78647;DHT22;67961;43.460;3.762;2023-04-15T10:02:12;19.70;39.70
78647;DHT22;67961;43.460;3.762;2023-04-15T10:04:40;19.70;40.10
78647;DHT22;67961;43.460;3.762;2023-04-15T10:07:07;19.90;40.50
78647;DHT22;67961;43.460;3.762;2023-04-15T10:09:35;20.00;39.90
78647;DHT22;67961;43.460;3.762;2023-04-15T10:12:03;20.20;39.80
78647;DHT22;67961;43.460;3.762;2023-04-15T10:14:32;20.50;39.10
78647;DHT22;67961;43.460;3.762;2023-04-15T10:17:01;20.50;38.50
78647;DHT22;67961;43.460;3.762;2023-04-15T10:19:32;20.30;38.70
78647;DHT22;67961;43.460;3.762;2023-04-15T10:21:58;20.00;38.90
78647;DHT22;67961;43.460;3.762;2023-04-15T10:24:24;20.00;39.60
78647;DHT22;67961;43.460;3.762;2023-04-15T10:26:51;19.90;39.40
78647;DHT22;67961;43.460;3.762;2023-04-15T10:29:17;19.70;39.80
78647;DHT22;67961;43.460;3.762;2023-04-15T10:31:43;19.80;41.20
78647;DHT22;67961;43.460;3.762;2023-04-15T10:34:10;19.90;40.10
78647;DHT22;67961;43.460;3.762;2023-04-15T10:36:37;20.00;40.00
78647;DHT22;67961;43.460;3.762;2023-04-15T10:39:38;20.10;40.30
78647;DHT22;67961;43.460;3.762;2023-04-15T10:42:09;20.10;40.20
78647;DHT22;67961;43.460;3.762;2023-04-15T10:44:44;20.20;40.30
78647;DHT22;67961;43.460;3.762;2023-04-15T10:47:15;20.10;40.70
78647;DHT22;67961;43.460;3.762;2023-04-15T10:49:51;20.00;40.00
78647;DHT22;67961;43.460;3.762;2023-04-15T10:52:22;20.30;40.70
78647;DHT22;67961;43.460;3.762;2023-04-15T10:54:48;20.40;39.50
78647;DHT22;67961;43.460;3.762;2023-04-15T10:57:23;20.40;39.80
78647;DHT22;67961;43.460;3.762;2023-04-15T11:05:04;20.70;38.40
78647;DHT22;67961;43.460;3.762;2023-04-15T11:12:48;20.50;39.50
78647;DHT22;67961;43.460;3.762;2023-04-15T11:15:40;20.50;39.50
78647;DHT22;67961;43.460;3.762;2023-04-15T11:18:20;20.50;40.00
78647;DHT22;67961;43.460;3.762;2023-04-15T11:23:26;20.70;39.50
78647;DHT22;67961;43.460;3.762;2023-04-15T11:25:54;20.70;39.10
78647;DHT22;67961;43.460;3.762;2023-04-15T11:28:25;20.70;38.20
78647;DHT22;67961;43.460;3.762;2023-04-15T11:30:51;20.50;37.30
78647;DHT22;67961;43.460;3.762;2023-04-15T11:33:16;20.50;39.40
78647;DHT22;67961;43.460;3.762;2023-04-15T11:35:42;20.70;39.70
78647;DHT22;67961;43.460;3.762;2023-04-15T11:38:10;20.70;39.00
78647;DHT22;67961;43.460;3.762;2023-04-15T11:40:39;20.60;39.00
78647;DHT22;67961;43.460;3.762;2023-04-15T11:43:13;20.50;40.00
78647;DHT22;67961;43.460;3.762;2023-04-15T11:45:59;20.70;40.10
78647;DHT22;67961;43.460;3.762;2023-04-15T11:48:29;20.50;39.20
78647;DHT22;67961;43.460;3.762;2023-04-15T11:56:04;20.80;37.70
78647;DHT22;67961;43.460;3.762;2023-04-15T11:58:30;20.60;36.90
78647;DHT22;67961;43.460;3.762;2023-04-15T12:01:00;20.80;37.50
78647;DHT22;67961;43.460;3.762;2023-04-15T12:03:27;20.70;37.30
78647;DHT22;67961;43.460;3.762;2023-04-15T12:06:06;20.30;37.90
78647;DHT22;67961;43.460;3.762;2023-04-15T12:11:17;19.70;39.30
78647;DHT22;67961;43.460;3.762;2023-04-15T12:13:44;20.10;39.60
78647;DHT22;67961;43.460;3.762;2023-04-15T12:16:10;20.60;39.10
78647;DHT22;67961;43.460;3.762;2023-04-15T12:18:38;20.90;39.00
78647;DHT22;67961;43.460;3.762;2023-04-15T12:21:10;20.70;37.80
78647;DHT22;67961;43.460;3.762;2023-04-15T12:23:50;20.70;37.80
78647;DHT22;67961;43.460;3.762;2023-04-15T12:26:17;20.20;37.90
78647;DHT22;67961;43.460;3.762;2023-04-15T12:28:43;20.00;37.90
78647;DHT22;67961;43.460;3.762;2023-04-15T12:31:10;20.10;38.50
78647;DHT22;67961;43.460;3.762;2023-04-15T12:33:37;20.30;38.60
78647;DHT22;67961;43.460;3.762;2023-04-15T12:36:03;20.30;38.00
78647;DHT22;67961;43.460;3.762;2023-04-15T12:38:29;20.10;37.70
78647;DHT22;67961;43.460;3.762;2023-04-15T12:40:58;20.30;37.20
78647;DHT22;67961;43.460;3.762;2023-04-15T12:43:24;20.30;38.30
78647;DHT22;67961;43.460;3.762;2023-04-15T12:45:50;20.10;37.50
78647;DHT22;67961;43.460;3.762;2023-04-15T12:48:15;19.70;37.70
78647;DHT22;67961;43.460;3.762;2023-04-15T12:50:41;19.30;37.60
78647;DHT22;67961;43.460;3.762;2023-04-15T12:53:07;19.30;38.50
78647;DHT22;67961;43.460;3.762;2023-04-15T12:55:33;19.50;38.00
78647;DHT22;67961;43.460;3.762;2023-04-15T12:57:59;19.70;38.10
78647;DHT22;67961;43.460;3.762;2023-04-15T13:00:24;19.80;37.60
78647;DHT22;67961;43.460;3.762;2023-04-15T13:02:50;19.70;37.40
78647;DHT22;67961;43.460;3.762;2023-04-15T13:05:16;19.90;36.70
78647;DHT22;67961;43.460;3.762;2023-04-15T13:07:41;19.80;36.80
78647;DHT22;67961;43.460;3.762;2023-04-15T13:10:07;20.00;36.80
78647;DHT22;67961;43.460;3.762;2023-04-15T13:12:33;20.00;37.00
78647;DHT22;67961;43.460;3.762;2023-04-15T13:15:04;20.00;36.00
78647;DHT22;67961;43.460;3.762;2023-04-15T13:17:30;20.00;36.00
78647;DHT22;67961;43.460;3.762;2023-04-15T13:19:56;20.00;35.00
78647;DHT22;67961;43.460;3.762;2023-04-15T13:22:22;19.70;35.00
78647;DHT22;67961;43.460;3.762;2023-04-15T13:24:48;19.70;35.60
78647;DHT22;67961;43.460;3.762;2023-04-15T13:27:14;19.60;36.50
78647;DHT22;67961;43.460;3.762;2023-04-15T13:29:39;19.50;36.20
78647;DHT22;67961;43.460;3.762;2023-04-15T13:32:05;19.40;36.40
78647;DHT22;67961;43.460;3.762;2023-04-15T13:34:31;19.20;36.70
78647;DHT22;67961;43.460;3.762;2023-04-15T13:36:57;19.10;38.00
78647;DHT22;67961;43.460;3.762;2023-04-15T13:39:23;19.00;37.80
78647;DHT22;67961;43.460;3.762;2023-04-15T13:41:48;19.10;38.00
78647;DHT22;67961;43.460;3.762;2023-04-15T13:44:14;19.10;37.90
78647;DHT22;67961;43.460;3.762;2023-04-15T13:46:40;19.00;37.20
78647;DHT22;67961;43.460;3.762;2023-04-15T13:49:07;18.90;37.50
78647;DHT22;67961;43.460;3.762;2023-04-15T13:51:32;18.90;36.90
78647;DHT22;67961;43.460;3.762;2023-04-15T13:54:00;18.90;37.80
78647;DHT22;67961;43.460;3.762;2023-04-15T13:56:26;18.90;38.10
78647;DHT22;67961;43.460;3.762;2023-04-15T13:58:52;18.70;36.50
78647;DHT22;67961;43.460;3.762;2023-04-15T14:01:19;18.50;36.80
78647;DHT22;67961;43.460;3.762;2023-04-15T14:03:45;18.40;37.80
78647;DHT22;67961;43.460;3.762;2023-04-15T14:06:10;18.50;38.00
78647;DHT22;67961;43.460;3.762;2023-04-15T14:08:36;18.50;37.00
78647;DHT22;67961;43.460;3.762;2023-04-15T14:11:01;18.50;36.80
78647;DHT22;67961;43.460;3.762;2023-04-15T14:13:27;18.30;37.50
78647;DHT22;67961;43.460;3.762;2023-04-15T14:15:53;18.30;37.00
78647;DHT22;67961;43.460;3.762;2023-04-15T14:18:19;18.20;37.80
78647;DHT22;67961;43.460;3.762;2023-04-15T14:20:45;18.20;37.80
78647;DHT22;67961;43.460;3.762;2023-04-15T14:23:11;18.20;37.40
78647;DHT22;67961;43.460;3.762;2023-04-15T14:25:36;18.10;37.40
78647;DHT22;67961;43.460;3.762;2023-04-15T14:28:03;18.10;37.40
78647;DHT22;67961;43.460;3.762;2023-04-15T14:30:29;18.10;37.40
78647;DHT22;67961;43.460;3.762;2023-04-15T14:32:55;18.10;36.60
78647;DHT22;67961;43.460;3.762;2023-04-15T14:35:20;18.00;36.60
78647;DHT22;67961;43.460;3.762;2023-04-15T14:37:46;18.00;36.90
78647;DHT22;67961;43.460;3.762;2023-04-15T14:40:12;18.10;36.50
78647;DHT22;67961;43.460;3.762;2023-04-15T14:42:37;18.10;36.60
78647;DHT22;67961;43.460;3.762;2023-04-15T14:45:03;18.10;37.20
78647;DHT22;67961;43.460;3.762;2023-04-15T14:47:29;18.10;37.00
78647;DHT22;67961;43.460;3.762;2023-04-15T14:49:55;18.10;37.10
78647;DHT22;67961;43.460;3.762;2023-04-15T14:52:21;18.10;36.70
78647;DHT22;67961;43.460;3.762;2023-04-15T14:54:47;18.10;36.70
78647;DHT22;67961;43.460;3.762;2023-04-15T14:57:12;18.00;36.70
78647;DHT22;67961;43.460;3.762;2023-04-15T14:59:38;18.00;36.20
78647;DHT22;67961;43.460;3.762;2023-04-15T15:02:03;18.00;36.50
78647;DHT22;67961;43.460;3.762;2023-04-15T15:04:29;17.90;36.20
78647;DHT22;67961;43.460;3.762;2023-04-15T15:06:57;17.80;36.60
78647;DHT22;67961;43.460;3.762;2023-04-15T15:09:23;17.80;36.90
78647;DHT22;67961;43.460;3.762;2023-04-15T15:11:49;17.80;36.90
78647;DHT22;67961;43.460;3.762;2023-04-15T15:14:15;17.90;36.90
78647;DHT22;67961;43.460;3.762;2023-04-15T15:16:41;17.80;36.60
78647;DHT22;67961;43.460;3.762;2023-04-15T15:19:07;17.80;36.10
78647;DHT22;67961;43.460;3.762;2023-04-15T15:21:33;17.50;36.50
78647;DHT22;67961;43.460;3.762;2023-04-15T15:23:58;17.50;36.50
78647;DHT22;67961;43.460;3.762;2023-04-15T15:26:24;17.50;36.60
78647;DHT22;67961;43.460;3.762;2023-04-15T15:28:52;17.50;36.60
78647;DHT22;67961;43.460;3.762;2023-04-15T15:31:18;17.60;36.90
78647;DHT22;67961;43.460;3.762;2023-04-15T15:33:43;17.60;36.70
78647;DHT22;67961;43.460;3.762;2023-04-15T15:36:09;17.60;37.00
78647;DHT22;67961;43.460;3.762;2023-04-15T15:38:35;17.60;36.70
78647;DHT22;67961;43.460;3.762;2023-04-15T15:41:01;17.60;37.20
78647;DHT22;67961;43.460;3.762;2023-04-15T15:43:27;17.60;36.40
78647;DHT22;67961;43.460;3.762;2023-04-15T15:45:53;17.60;37.20
78647;DHT22;67961;43.460;3.762;2023-04-15T15:48:21;17.60;36.80